Time;durP1;ratioP1;P1;durP2;ratioP2;P2;SDS_P1;SDS_P2;PMS_P1;PMS_P2;Temp;Humidity;BMP_temperature;BMP_pressure;BME280_temperature;BME280_humidity;BME280_pressure;Samples;Min_cycle;Max_cycle;Signal;HPM_P1;HPM_P2
2022/02/19 00:01:43;;;;;;;7.85;3.90;;;4.00;99.90;;;;;;5088128;28;20665;-69
2022/02/19 00:04:09;;;;;;;8.75;3.67;;;4.00;99.90;;;;;;5089545;28;20603;-69
2022/02/19 00:06:37;;;;;;;9.63;3.75;;;4.00;99.90;;;;;;5089851;28;20183;-69
2022/02/19 00:09:05;;;;;;;8.20;3.45;;;3.90;99.90;;;;;;5089754;28;20274;-69
2022/02/19 00:11:31;;;;;;;7.45;3.60;;;3.80;99.90;;;;;;5089787;28;20163;-69
2022/02/19 00:13:57;;;;;;;8.25;3.75;;;3.70;99.90;;;;;;5080704;28;20244;-69
2022/02/19 00:16:23;;;;;;;5.97;3.55;;;3.70;99.90;;;;;;5069731;28;20254;-69
2022/02/19 00:18:49;;;;;;;8.13;4.03;;;3.60;99.90;;;;;;5081541;28;20214;-69
2022/02/19 00:21:16;;;;;;;7.20;3.08;;;3.50;99.90;;;;;;5089291;28;20160;-69
2022/02/19 00:23:42;;;;;;;7.10;3.80;;;3.50;99.90;;;;;;5085001;28;20175;-69
2022/02/19 00:26:08;;;;;;;8.25;3.42;;;3.40;99.90;;;;;;5083620;28;20161;-69
2022/02/19 00:28:34;;;;;;;4.82;2.33;;;3.30;99.90;;;;;;5069401;28;20191;-69
2022/02/19 00:31:00;;;;;;;6.00;3.50;;;3.40;99.90;;;;;;5069410;28;20223;-69
2022/02/19 00:33:29;;;;;;;6.70;3.05;;;3.40;99.90;;;;;;5069413;28;20157;-69
2022/02/19 00:35:54;;;;;;;4.80;3.20;;;3.40;99.90;;;;;;5071734;28;20679;-69
2022/02/19 00:38:20;;;;;;;6.65;3.17;;;3.50;99.90;;;;;;5089247;28;20207;-69
2022/02/19 00:40:48;;;;;;;3.65;3.03;;;3.60;99.90;;;;;;5089338;28;20168;-69
2022/02/19 00:43:14;;;;;;;5.85;3.63;;;3.40;99.90;;;;;;5089407;28;20178;-69
2022/02/19 00:45:41;;;;;;;8.32;3.70;;;3.60;99.90;;;;;;5089345;28;20153;-69
2022/02/19 00:48:08;;;;;;;6.82;3.72;;;3.50;99.90;;;;;;5089354;28;20676;-70
2022/02/19 00:50:34;;;;;;;6.35;3.67;;;3.40;99.90;;;;;;5089345;28;20163;-69
2022/02/19 00:53:01;;;;;;;4.97;3.28;;;3.40;99.90;;;;;;5089280;28;20187;-69
2022/02/19 00:55:27;;;;;;;10.40;3.50;;;3.20;99.90;;;;;;5089221;28;20515;-68
2022/02/19 00:57:54;;;;;;;5.45;3.40;;;3.10;99.90;;;;;;5089060;28;20327;-69
2022/02/19 01:00:20;;;;;;;7.30;4.20;;;3.00;99.90;;;;;;5082652;28;20181;-69
2022/02/19 01:02:46;;;;;;;6.85;3.83;;;3.00;99.90;;;;;;5073358;28;20733;-69
2022/02/19 01:05:12;;;;;;;5.22;3.17;;;2.90;99.90;;;;;;5068966;28;20200;-68
2022/02/19 01:07:38;;;;;;;10.82;3.95;;;2.90;99.90;;;;;;5068998;28;20200;-69
2022/02/19 01:10:07;;;;;;;5.25;3.05;;;3.10;99.90;;;;;;5068131;28;20189;-69
2022/02/19 01:12:37;;;;;;;6.40;3.35;;;3.10;99.90;;;;;;5068595;28;20153;-68
2022/02/19 01:15:06;;;;;;;5.50;3.40;;;3.10;99.90;;;;;;5068692;28;20161;-69
2022/02/19 01:17:32;;;;;;;6.93;2.58;;;3.00;99.90;;;;;;5068897;28;20192;-69
2022/02/19 01:19:58;;;;;;;6.32;3.00;;;2.90;99.90;;;;;;5068602;28;20185;-70
2022/02/19 01:22:24;;;;;;;4.85;3.05;;;3.30;99.90;;;;;;5068869;28;20172;-70
2022/02/19 01:24:50;;;;;;;4.93;2.80;;;3.50;99.90;;;;;;5068792;28;20521;-68
2022/02/19 01:27:15;;;;;;;4.55;2.58;;;3.60;99.90;;;;;;5068852;28;20161;-70
2022/02/19 01:29:41;;;;;;;4.60;2.50;;;4.00;99.90;;;;;;5068675;28;20192;-70
2022/02/19 01:32:07;;;;;;;2.30;1.80;;;4.40;99.90;;;;;;5070155;28;20164;-70
2022/02/19 01:34:34;;;;;;;3.97;2.65;;;4.40;99.90;;;;;;5072774;28;20704;-70
2022/02/19 01:37:00;;;;;;;12.98;4.22;;;4.70;99.90;;;;;;5072531;28;20195;-70
2022/02/19 01:39:29;;;;;;;3.42;2.40;;;4.70;99.90;;;;;;5072554;28;20185;-71
2022/02/19 01:41:55;;;;;;;5.15;2.97;;;4.90;99.90;;;;;;5072620;28;20165;-70
2022/02/19 01:44:32;;;;;;;5.40;2.22;;;4.80;99.90;;;;;;5072601;28;20157;-70
2022/02/19 01:46:58;;;;;;;4.22;2.50;;;4.80;99.90;;;;;;5072513;28;20594;-70
2022/02/19 01:49:24;;;;;;;3.22;1.40;;;4.90;99.90;;;;;;5072382;28;20258;-70
2022/02/19 01:51:50;;;;;;;3.72;1.88;;;4.90;99.90;;;;;;5072435;28;20199;-70
2022/02/19 01:54:16;;;;;;;3.20;1.73;;;4.90;99.90;;;;;;5072274;28;20640;-70
2022/02/19 01:56:42;;;;;;;4.90;1.83;;;4.90;99.90;;;;;;5072261;28;20168;-70
2022/02/19 01:59:07;;;;;;;4.90;1.95;;;4.70;99.90;;;;;;5072191;28;20251;-70
2022/02/19 02:01:34;;;;;;;5.22;1.92;;;4.60;99.90;;;;;;5072248;28;20191;-70
2022/02/19 02:04:00;;;;;;;6.07;2.08;;;4.50;99.90;;;;;;5071955;28;20223;-69
2022/02/19 02:06:26;;;;;;;9.38;2.55;;;4.70;99.90;;;;;;5070819;28;20157;-70
2022/02/19 02:08:53;;;;;;;5.00;2.05;;;4.90;99.90;;;;;;5072058;28;20251;-70
2022/02/19 02:11:19;;;;;;;4.22;2.67;;;4.90;99.90;;;;;;5072101;28;20607;-70
2022/02/19 02:13:45;;;;;;;3.58;2.05;;;4.90;99.90;;;;;;5071984;28;20165;-70
2022/02/19 02:16:11;;;;;;;3.35;1.80;;;4.90;99.90;;;;;;5071969;28;20236;-70
2022/02/19 02:18:37;;;;;;;3.45;1.95;;;5.00;99.90;;;;;;5071727;28;20271;-70
2022/02/19 02:21:03;;;;;;;4.53;2.33;;;5.20;99.90;;;;;;5071919;28;20161;-70
2022/02/19 02:23:29;;;;;;;4.70;1.75;;;5.40;99.90;;;;;;5071890;28;20195;-70
2022/02/19 02:25:56;;;;;;;4.30;1.90;;;5.40;99.90;;;;;;5071770;28;20183;-69
2022/02/19 02:28:22;;;;;;;3.42;1.92;;;5.30;99.90;;;;;;5071751;28;20184;-70
2022/02/19 02:30:48;;;;;;;2.50;1.90;;;5.50;99.90;;;;;;5071639;28;20671;-70
2022/02/19 02:33:18;;;;;;;3.05;1.73;;;5.70;99.90;;;;;;5071414;28;20161;-70
2022/02/19 02:35:44;;;;;;;2.75;1.77;;;5.70;99.90;;;;;;5070346;28;20195;-69
2022/02/19 02:38:09;;;;;;;3.20;2.25;;;5.60;99.90;;;;;;5071597;28;20227;-69
2022/02/19 02:40:36;;;;;;;8.00;2.15;;;5.50;99.90;;;;;;5071381;28;20192;-70
2022/02/19 02:43:03;;;;;;;4.03;1.65;;;5.30;99.90;;;;;;5071167;28;20235;-70
2022/02/19 02:45:29;;;;;;;2.78;1.92;;;5.10;99.90;;;;;;5070194;28;20664;-70
2022/02/19 02:47:55;;;;;;;3.33;2.35;;;4.90;99.90;;;;;;5070136;28;20169;-70
2022/02/19 02:50:21;;;;;;;3.63;2.15;;;4.80;99.90;;;;;;5071382;28;20192;-70
2022/02/19 02:52:47;;;;;;;3.47;2.10;;;4.70;99.90;;;;;;5071286;28;20215;-70
2022/02/19 02:55:14;;;;;;;3.20;2.00;;;4.60;99.90;;;;;;5071306;28;20248;-69
2022/02/19 02:57:41;;;;;;;3.38;2.00;;;4.50;99.90;;;;;;5074532;28;20235;-70
2022/02/19 03:00:11;;;;;;;2.97;1.73;;;4.40;99.90;;;;;;5091220;28;20160;-69
2022/02/19 03:02:37;;;;;;;3.63;1.80;;;4.40;99.90;;;;;;5090960;28;20220;-70
2022/02/19 03:05:05;;;;;;;4.75;2.20;;;4.40;99.90;;;;;;5091189;28;20168;-69
2022/02/19 03:07:32;;;;;;;4.88;2.17;;;4.40;99.90;;;;;;5091135;28;20191;-69
2022/02/19 03:09:58;;;;;;;3.53;1.73;;;4.40;99.90;;;;;;5091028;28;20168;-69
2022/02/19 03:12:24;;;;;;;4.32;2.20;;;4.70;99.90;;;;;;5090964;28;20160;-69
2022/02/19 03:14:51;;;;;;;4.53;2.08;;;5.00;99.90;;;;;;5090941;28;20205;-69
2022/02/19 03:17:17;;;;;;;2.85;1.50;;;5.40;99.90;;;;;;5089580;28;20582;-69
2022/02/19 03:19:43;;;;;;;6.22;2.05;;;5.80;99.90;;;;;;5090825;28;20234;-70
2022/02/19 03:22:09;;;;;;;3.10;1.73;;;5.70;99.90;;;;;;5090760;28;20156;-69
2022/02/19 03:24:35;;;;;;;2.83;1.60;;;5.50;99.90;;;;;;5090787;28;20578;-69
2022/02/19 03:27:02;;;;;;;0.63;0.60;;;6.10;99.90;;;;;;5090760;28;20181;-68
2022/02/19 03:29:29;;;;;;;1.45;0.63;;;7.40;99.90;;;;;;5090451;28;20226;-69
2022/02/19 03:31:55;;;;;;;0.85;0.60;;;8.40;99.90;;;;;;5090716;28;20167;-68
2022/02/19 03:34:22;;;;;;;0.93;0.70;;;8.70;99.90;;;;;;5090413;28;20164;-69
2022/02/19 03:36:48;;;;;;;2.30;0.82;;;8.70;99.90;;;;;;5090265;28;20160;-69
2022/02/19 03:39:14;;;;;;;0.47;0.38;;;8.90;99.90;;;;;;5090329;28;20188;-69
2022/02/19 03:41:40;;;;;;;4.30;0.85;;;8.70;99.90;;;;;;5090127;28;20160;-69
2022/02/19 03:44:06;;;;;;;0.30;0.30;;;8.60;99.90;;;;;;5090404;28;20212;-69
2022/02/19 03:46:33;;;;;;;0.95;0.40;;;8.70;99.90;;;;;;5090356;28;20156;-68
2022/02/19 03:48:59;;;;;;;0.63;0.40;;;8.80;99.90;;;;;;5090198;28;20256;-69
2022/02/19 03:51:25;;;;;;;0.70;0.40;;;8.90;99.90;;;;;;5090205;28;20164;-69
2022/02/19 03:53:51;;;;;;;0.40;0.40;;;8.90;99.90;;;;;;5089877;28;20224;-68
2022/02/19 03:56:17;;;;;;;0.45;0.40;;;8.80;99.90;;;;;;5089652;28;20164;-69
2022/02/19 03:58:43;;;;;;;0.60;0.50;;;8.90;99.90;;;;;;5089927;28;20203;-69
2022/02/19 04:01:09;;;;;;;0.30;0.30;;;8.80;99.90;;;;;;5089896;28;20156;-69
2022/02/19 04:03:35;;;;;;;0.22;0.22;;;8.90;99.90;;;;;;5089763;28;20216;-69
2022/02/19 04:06:01;;;;;;;0.52;0.30;;;9.10;99.90;;;;;;5089914;28;20167;-70
2022/02/19 04:08:26;;;;;;;0.85;0.43;;;8.90;99.90;;;;;;5088561;28;20208;-70
2022/02/19 04:10:52;;;;;;;0.60;0.40;;;8.90;99.90;;;;;;5089828;28;20159;-71
2022/02/19 04:13:20;;;;;;;0.90;0.47;;;8.90;99.90;;;;;;5089716;28;20242;-71
2022/02/19 04:15:46;;;;;;;0.30;0.30;;;8.90;99.90;;;;;;5089678;28;20160;-71
2022/02/19 04:18:12;;;;;;;1.40;0.50;;;8.80;99.90;;;;;;5089490;28;20195;-71
2022/02/19 04:20:38;;;;;;;1.45;1.20;;;8.80;99.90;;;;;;5089636;28;20160;-70
2022/02/19 04:23:05;;;;;;;2.28;1.05;;;8.80;99.90;;;;;;5089909;28;20156;-68
2022/02/19 04:25:32;;;;;;;3.00;1.92;;;8.80;99.90;;;;;;5089625;28;20549;-70
2022/02/19 04:28:04;;;;;;;1.05;0.90;;;8.80;99.90;;;;;;5089528;28;20194;-70
2022/02/19 04:30:30;;;;;;;0.30;0.30;;;8.80;99.90;;;;;;5089442;28;20247;-70
2022/02/19 04:32:58;;;;;;;1.08;0.55;;;8.80;99.90;;;;;;5089577;28;20191;-68
2022/02/19 04:35:28;;;;;;;0.38;0.38;;;8.80;99.90;;;;;;5089442;28;20192;-70
2022/02/19 04:37:54;;;;;;;0.68;0.30;;;8.80;99.90;;;;;;5089327;28;20235;-68
2022/02/19 04:40:21;;;;;;;1.13;0.40;;;8.90;99.90;;;;;;5089418;28;20152;-71
2022/02/19 04:42:48;;;;;;;0.82;0.30;;;9.00;99.90;;;;;;5089445;28;20182;-70
2022/02/19 04:45:14;;;;;;;0.85;0.20;;;8.90;99.90;;;;;;5089295;28;20156;-70
2022/02/19 04:47:41;;;;;;;1.20;0.35;;;8.90;99.90;;;;;;5089280;28;20195;-71
2022/02/19 04:50:09;;;;;;;3.60;0.28;;;9.00;99.90;;;;;;5087890;28;20164;-70
2022/02/19 04:52:36;;;;;;;0.15;0.10;;;9.10;99.90;;;;;;5089546;28;20164;-69
2022/02/19 04:55:01;;;;;;;0.30;0.15;;;9.10;99.90;;;;;;5089336;28;20597;-69
2022/02/19 04:57:27;;;;;;;0.90;0.57;;;9.10;99.90;;;;;;5088974;28;20180;-70
2022/02/19 04:59:54;;;;;;;0.20;0.20;;;9.10;99.90;;;;;;5089238;28;20560;-69
2022/02/19 05:02:20;;;;;;;0.13;0.10;;;9.00;99.90;;;;;;5089002;28;20223;-70
2022/02/19 05:04:46;;;;;;;0.30;0.30;;;9.10;99.90;;;;;;5089278;28;20169;-69
2022/02/19 05:07:12;;;;;;;0.50;0.50;;;9.20;99.90;;;;;;5092368;28;20217;-69
2022/02/19 05:09:38;;;;;;;3.83;0.35;;;9.30;99.90;;;;;;5093199;28;20220;-70
2022/02/19 05:12:05;;;;;;;0.30;0.30;;;9.30;99.90;;;;;;5093310;28;20159;-69
2022/02/19 05:14:31;;;;;;;0.22;0.10;;;9.30;99.90;;;;;;5093323;28;20162;-69
2022/02/19 05:16:57;;;;;;;0.85;0.35;;;9.30;99.90;;;;;;5091826;28;20270;-69
2022/02/19 05:19:23;;;;;;;0.63;0.20;;;9.40;99.90;;;;;;5092986;28;20192;-69
2022/02/19 05:21:49;;;;;;;0.30;0.15;;;9.40;99.90;;;;;;5093157;28;20215;-69
2022/02/19 05:24:15;;;;;;;3.03;0.20;;;9.30;99.90;;;;;;5093027;28;20180;-69
2022/02/19 05:26:41;;;;;;;0.28;0.28;;;9.30;99.90;;;;;;5092999;28;20156;-69
2022/02/19 05:29:07;;;;;;;0.75;0.25;;;9.20;99.90;;;;;;5091506;28;20199;-69
2022/02/19 05:31:33;;;;;;;0.10;0.10;;;9.30;99.90;;;;;;5093007;28;20229;-69
2022/02/19 05:33:59;;;;;;;0.20;0.20;;;9.30;99.90;;;;;;5092691;28;20179;-69
2022/02/19 05:36:25;;;;;;;0.30;0.20;;;9.20;99.90;;;;;;5092704;28;20163;-70
2022/02/19 05:38:51;;;;;;;0.10;0.10;;;9.20;99.90;;;;;;5092616;28;20227;-69
2022/02/19 05:41:17;;;;;;;0.85;0.20;;;9.20;99.90;;;;;;5092664;28;20156;-69
2022/02/19 05:43:43;;;;;;;0.20;0.20;;;9.10;99.90;;;;;;5092730;28;20222;-69
2022/02/19 05:46:09;;;;;;;0.47;0.20;;;9.20;99.90;;;;;;5092454;28;20168;-69
2022/02/19 05:48:34;;;;;;;0.20;0.20;;;9.30;99.90;;;;;;5092382;28;20202;-69
2022/02/19 05:51:00;;;;;;;0.25;0.25;;;9.20;99.90;;;;;;5091277;28;20202;-70
2022/02/19 05:53:26;;;;;;;0.32;0.20;;;9.20;99.90;;;;;;5092478;28;20156;-70
2022/02/19 05:55:53;;;;;;;0.57;0.20;;;9.20;99.90;;;;;;5092460;28;20164;-70
2022/02/19 05:58:20;;;;;;;2.15;0.20;;;9.10;99.90;;;;;;5092222;28;20203;-70
2022/02/19 06:00:46;;;;;;;0.38;0.32;;;9.10;99.90;;;;;;5090961;28;20179;-69
2022/02/19 06:03:13;;;;;;;0.20;0.20;;;9.10;99.90;;;;;;5090760;28;20223;-70
2022/02/19 06:05:38;;;;;;;0.32;0.20;;;9.00;99.90;;;;;;5092175;28;20172;-70
2022/02/19 06:08:05;;;;;;;0.30;0.20;;;9.10;99.90;;;;;;5092114;28;20325;-69
2022/02/19 06:10:31;;;;;;;0.15;0.10;;;9.10;99.90;;;;;;5092161;28;20168;-70
2022/02/19 06:12:56;;;;;;;0.45;0.28;;;9.10;99.90;;;;;;5092121;28;20660;-70
2022/02/19 06:15:22;;;;;;;1.38;0.20;;;9.10;99.90;;;;;;5092085;28;20155;-71
2022/02/19 06:17:48;;;;;;;0.20;0.20;;;9.10;99.90;;;;;;5089891;28;20726;-70
2022/02/19 06:20:14;;;;;;;0.60;0.20;;;9.10;99.90;;;;;;5092114;28;20156;-70
2022/02/19 06:22:40;;;;;;;2.00;0.30;;;9.10;99.90;;;;;;5091966;28;20216;-70
2022/02/19 06:25:07;;;;;;;2.15;0.20;;;9.10;99.90;;;;;;5091920;28;20215;-70
2022/02/19 06:27:38;;;;;;;1.50;0.10;;;9.10;99.90;;;;;;5091808;28;20261;-69
2022/02/19 06:30:04;;;;;;;0.13;0.10;;;9.10;99.90;;;;;;5091792;28;20216;-69
2022/02/19 06:32:30;;;;;;;0.10;0.10;;;9.20;99.90;;;;;;5091657;28;20156;-69
2022/02/19 06:34:56;;;;;;;0.70;0.40;;;9.10;99.90;;;;;;5091664;28;20190;-69
2022/02/19 06:37:22;;;;;;;0.50;0.20;;;9.10;99.90;;;;;;5091489;28;20194;-68
2022/02/19 06:39:48;;;;;;;0.15;0.13;;;9.10;99.90;;;;;;5090192;28;20180;-69
2022/02/19 06:42:14;;;;;;;1.65;0.20;;;9.20;99.90;;;;;;5091527;28;20160;-69
2022/02/19 06:44:40;;;;;;;0.20;0.20;;;9.10;99.90;;;;;;5091412;28;20160;-69
2022/02/19 06:47:07;;;;;;;0.10;0.10;;;9.20;99.90;;;;;;5091629;28;20152;-69
2022/02/19 06:49:33;;;;;;;0.35;0.10;;;9.30;99.90;;;;;;5090411;28;20274;-69
2022/02/19 06:51:59;;;;;;;2.80;0.20;;;9.20;99.90;;;;;;5081229;28;20187;-69
2022/02/19 06:54:24;;;;;;;0.95;0.20;;;9.20;99.90;;;;;;5073106;28;20184;-69
2022/02/19 06:56:52;;;;;;;0.25;0.20;;;9.20;99.90;;;;;;5071019;28;20171;-69
2022/02/19 06:59:18;;;;;;;0.40;0.10;;;9.20;99.90;;;;;;5070919;28;20196;-68
2022/02/19 07:01:44;;;;;;;0.30;0.28;;;9.20;99.90;;;;;;5071152;28;20160;-69
2022/02/19 07:04:14;;;;;;;0.30;0.20;;;9.20;99.90;;;;;;5070940;28;20219;-69
2022/02/19 07:06:41;;;;;;;0.10;0.10;;;9.20;99.90;;;;;;5071129;28;20152;-69
2022/02/19 07:09:07;;;;;;;0.10;0.10;;;9.20;99.90;;;;;;5070754;28;20196;-68
2022/02/19 07:11:33;;;;;;;0.47;0.20;;;9.30;99.90;;;;;;5069651;28;20237;-68
2022/02/19 07:13:59;;;;;;;1.23;0.20;;;9.50;99.90;;;;;;5070991;28;20161;-68
2022/02/19 07:16:25;;;;;;;0.20;0.20;;;9.40;99.90;;;;;;5069588;28;20203;-69
2022/02/19 07:18:50;;;;;;;0.10;0.10;;;9.30;99.90;;;;;;5070613;28;20242;-68
2022/02/19 07:21:16;;;;;;;1.65;0.13;;;9.20;99.90;;;;;;5070714;28;20159;-68
2022/02/19 07:23:42;;;;;;;0.63;0.10;;;9.30;99.90;;;;;;5069366;28;20177;-68
2022/02/19 07:26:08;;;;;;;1.85;0.20;;;9.20;99.90;;;;;;5070705;28;20159;-68
2022/02/19 07:28:34;;;;;;;2.30;0.20;;;9.30;99.90;;;;;;5070311;28;20689;-69
2022/02/19 07:31:01;;;;;;;0.15;0.15;;;9.40;99.90;;;;;;5069667;28;20183;-68
2022/02/19 07:33:27;;;;;;;0.10;0.10;;;9.40;99.90;;;;;;5070527;28;20206;-69
2022/02/19 07:35:53;;;;;;;2.40;0.28;;;9.40;99.90;;;;;;5070424;28;20216;-69
2022/02/19 07:38:19;;;;;;;0.47;0.20;;;9.40;99.90;;;;;;5070263;28;20204;-69
2022/02/19 07:40:44;;;;;;;0.17;0.15;;;9.40;99.90;;;;;;5070167;28;20216;-68
2022/02/19 07:43:10;;;;;;;1.80;0.30;;;9.40;99.90;;;;;;5070277;28;20523;-69
2022/02/19 07:45:36;;;;;;;0.30;0.30;;;9.40;99.90;;;;;;5070165;28;20149;-68
2022/02/19 07:48:02;;;;;;;0.93;0.30;;;9.40;99.90;;;;;;5070032;28;20252;-68
2022/02/19 07:58:42;;;;;;;1.77;0.40;;;9.50;99.90;;;;;;5069801;28;20296;-69
2022/02/19 08:01:10;;;;;;;0.20;0.10;;;9.50;99.90;;;;;;5069943;28;20164;-68
2022/02/19 08:03:36;;;;;;;0.10;0.10;;;9.60;99.90;;;;;;5069752;28;20232;-67
2022/02/19 08:06:04;;;;;;;0.55;0.30;;;9.70;99.90;;;;;;5069695;28;20161;-68
2022/02/19 08:08:31;;;;;;;1.65;0.28;;;9.60;99.90;;;;;;5069622;28;20211;-69
2022/02/19 08:10:57;;;;;;;0.10;0.10;;;9.70;99.90;;;;;;5069874;28;20165;-69
2022/02/19 08:13:23;;;;;;;1.20;0.30;;;9.60;99.90;;;;;;5069455;28;20241;-69
2022/02/19 08:15:52;;;;;;;0.10;0.10;;;9.70;99.90;;;;;;5073794;28;20194;-69
2022/02/19 08:18:19;;;;;;;0.22;0.20;;;9.70;99.90;;;;;;5088260;28;20286;-69
2022/02/19 08:20:47;;;;;;;0.00;0.00;;;9.70;99.90;;;;;;5085586;28;20194;-69
2022/02/19 08:23:15;;;;;;;0.10;0.10;;;9.80;99.90;;;;;;5080368;28;20163;-69
2022/02/19 08:25:41;;;;;;;0.20;0.20;;;9.80;99.90;;;;;;5079623;28;20175;-70
2022/02/19 08:28:08;;;;;;;0.15;0.10;;;9.90;99.90;;;;;;5069270;28;20242;-68
2022/02/19 08:30:38;;;;;;;0.32;0.10;;;9.90;99.90;;;;;;5081876;28;20176;-68
2022/02/19 08:33:05;;;;;;;1.02;0.22;;;9.90;99.90;;;;;;5082391;28;20203;-69
2022/02/19 08:35:32;;;;;;;0.50;0.20;;;10.00;99.90;;;;;;5069093;28;20649;-68
2022/02/19 08:37:58;;;;;;;0.10;0.10;;;10.00;99.90;;;;;;5068939;28;20196;-68
2022/02/19 08:40:24;;;;;;;0.10;0.10;;;10.10;99.90;;;;;;5068960;28;20188;-69
2022/02/19 08:42:50;;;;;;;2.35;0.32;;;10.10;99.90;;;;;;5068445;28;20164;-68
2022/02/19 08:45:17;;;;;;;0.68;0.20;;;10.20;99.90;;;;;;5069136;28;20157;-67
2022/02/19 08:47:44;;;;;;;1.70;0.20;;;10.20;99.90;;;;;;5068918;28;20207;-67
2022/02/19 08:50:12;;;;;;;0.30;0.17;;;10.40;99.90;;;;;;5067608;28;20173;-68
2022/02/19 08:52:42;;;;;;;0.57;0.30;;;10.40;99.90;;;;;;5069108;28;20176;-69
2022/02/19 08:55:11;;;;;;;0.82;0.28;;;10.50;99.90;;;;;;5074826;28;20182;-70
2022/02/19 08:57:37;;;;;;;0.20;0.10;;;10.60;99.70;;;;;;5077592;28;20198;-68
2022/02/19 09:00:07;;;;;;;3.08;0.40;;;10.60;99.90;;;;;;5079711;28;20169;-69
2022/02/19 09:02:34;;;;;;;0.60;0.30;;;10.70;99.70;;;;;;5086207;28;20257;-69
2022/02/19 09:05:01;;;;;;;0.10;0.10;;;10.70;99.90;;;;;;5089068;28;20195;-69
2022/02/19 09:07:28;;;;;;;0.10;0.10;;;10.80;99.70;;;;;;5088772;28;20230;-68
2022/02/19 09:09:54;;;;;;;1.23;0.30;;;10.80;99.50;;;;;;5087699;28;20171;-69
2022/02/19 09:12:22;;;;;;;1.50;0.32;;;10.90;98.70;;;;;;5087011;28;20174;-70
2022/02/19 09:14:48;;;;;;;0.57;0.30;;;11.00;98.80;;;;;;5088952;28;20164;-70
2022/02/19 09:17:13;;;;;;;1.60;0.65;;;11.10;98.30;;;;;;5088731;28;20300;-70
2022/02/19 09:19:39;;;;;;;4.07;0.40;;;11.30;98.90;;;;;;5088865;28;20153;-69
2022/02/19 09:22:06;;;;;;;0.38;0.28;;;11.40;98.50;;;;;;5085138;28;20173;-68
2022/02/19 09:24:32;;;;;;;2.03;0.45;;;11.50;98.40;;;;;;5068753;28;20153;-69
2022/02/19 09:27:01;;;;;;;0.50;0.30;;;11.40;98.10;;;;;;5068704;28;20216;-69
2022/02/19 09:29:27;;;;;;;1.95;0.20;;;11.40;97.40;;;;;;5076805;28;20152;-68
2022/02/19 09:31:53;;;;;;;0.65;0.20;;;11.50;98.40;;;;;;5087470;28;20164;-68
2022/02/19 09:34:22;;;;;;;1.38;0.30;;;11.40;97.90;;;;;;5088468;28;20212;-68
2022/02/19 09:36:49;;;;;;;0.20;0.10;;;11.40;98.10;;;;;;5088608;28;20214;-69
2022/02/19 09:39:15;;;;;;;0.20;0.20;;;11.50;98.00;;;;;;5088565;28;20278;-69
2022/02/19 09:41:45;;;;;;;1.95;0.20;;;11.30;97.40;;;;;;5088382;28;20152;-69
2022/02/19 09:44:11;;;;;;;0.55;0.30;;;11.20;97.00;;;;;;5088529;28;20152;-69
2022/02/19 09:46:38;;;;;;;1.20;0.32;;;11.20;97.40;;;;;;5088601;28;20221;-69
2022/02/19 09:49:05;;;;;;;1.17;0.17;;;11.30;96.90;;;;;;5088401;28;20160;-69
2022/02/19 09:51:33;;;;;;;0.47;0.40;;;11.40;97.80;;;;;;5088408;28;20160;-69
2022/02/19 09:53:59;;;;;;;2.28;0.40;;;11.50;96.80;;;;;;5091118;28;20239;-69
2022/02/19 09:56:28;;;;;;;1.40;0.20;;;11.60;97.10;;;;;;5082048;28;20200;-69
2022/02/19 09:58:54;;;;;;;0.55;0.22;;;11.70;97.20;;;;;;5072140;28;20212;-69
2022/02/19 10:01:21;;;;;;;5.63;0.75;;;11.80;96.70;;;;;;5072097;28;20152;-69
2022/02/19 10:03:57;;;;;;;1.20;0.45;;;11.90;96.70;;;;;;5071961;28;20278;-69
2022/02/19 10:06:28;;;;;;;1.75;0.35;;;12.00;96.70;;;;;;5071892;28;20188;-69
2022/02/19 10:09:16;;;;;;;0.70;0.60;;;11.90;96.20;;;;;;5071828;28;20152;-69
2022/02/19 10:11:44;;;;;;;0.30;0.30;;;11.90;96.10;;;;;;5071864;28;20175;-68
2022/02/19 10:14:31;;;;;;;1.70;0.30;;;11.80;96.00;;;;;;5076927;28;20194;-68
2022/02/19 10:17:24;;;;;;;0.43;0.40;;;11.90;96.00;;;;;;5087620;28;20198;-68
2022/02/19 10:20:01;;;;;;;0.95;0.40;;;11.80;96.10;;;;;;5099831;28;20198;-68
2022/02/19 10:22:30;;;;;;;1.85;0.50;;;11.90;97.20;;;;;;5084724;28;20231;-68
2022/02/19 10:25:16;;;;;;;6.07;0.50;;;12.10;96.60;;;;;;5084713;28;20754;-68
2022/02/19 10:27:45;;;;;;;0.68;0.30;;;12.30;96.20;;;;;;5085214;28;20178;-68
2022/02/19 10:30:18;;;;;;;0.52;0.30;;;12.40;95.50;;;;;;5081655;28;20182;-68
2022/02/19 10:33:03;;;;;;;0.73;0.50;;;12.50;96.50;;;;;;5091583;28;20169;-68
2022/02/19 10:35:35;;;;;;;0.55;0.20;;;12.50;95.80;;;;;;5084455;28;20160;-69
2022/02/19 10:38:05;;;;;;;1.27;0.30;;;12.50;95.30;;;;;;5091447;28;20236;-68
2022/02/19 10:40:39;;;;;;;0.63;0.10;;;12.40;95.00;;;;;;5091537;28;20148;-68
2022/02/19 10:43:08;;;;;;;0.98;0.25;;;12.20;95.70;;;;;;5091433;28;20176;-68
2022/02/19 10:45:35;;;;;;;0.28;0.20;;;12.30;96.50;;;;;;5080346;28;20191;-67
2022/02/19 10:48:16;;;;;;;2.75;0.22;;;12.30;95.30;;;;;;5082334;28;20175;-68
2022/02/19 10:50:50;;;;;;;1.20;0.30;;;12.40;96.00;;;;;;5078064;28;20172;-68
2022/02/19 10:53:22;;;;;;;1.38;0.20;;;12.50;96.30;;;;;;5073626;28;20169;-68
2022/02/19 10:55:49;;;;;;;1.83;0.43;;;12.70;96.00;;;;;;5083338;28;20600;-68
2022/02/19 10:58:15;;;;;;;0.52;0.30;;;12.80;95.80;;;;;;5070986;28;20181;-69
2022/02/19 11:00:42;;;;;;;1.95;0.20;;;13.10;93.30;;;;;;5073579;28;20175;-68
2022/02/19 11:03:11;;;;;;;0.52;0.25;;;13.30;93.50;;;;;;5083993;28;20220;-68
2022/02/19 11:05:40;;;;;;;0.17;0.10;;;13.10;94.00;;;;;;5080090;28;20275;-69
2022/02/19 11:08:07;;;;;;;0.63;0.50;;;13.10;94.20;;;;;;5079340;28;20169;-68
2022/02/19 11:10:33;;;;;;;0.75;0.30;;;12.90;92.40;;;;;;5081165;28;20180;-68
2022/02/19 11:13:01;;;;;;;0.20;0.20;;;13.00;93.30;;;;;;5082548;28;20176;-68
2022/02/19 11:15:27;;;;;;;0.88;0.20;;;13.10;93.90;;;;;;5070584;28;20169;-68
2022/02/19 11:17:54;;;;;;;1.45;0.20;;;13.50;93.50;;;;;;5069584;28;20207;-68
2022/02/19 11:20:24;;;;;;;1.25;0.20;;;13.40;94.20;;;;;;5070586;28;20165;-68
2022/02/19 11:22:53;;;;;;;0.20;0.13;;;13.50;93.40;;;;;;5071932;28;20193;-69
2022/02/19 11:25:21;;;;;;;0.38;0.20;;;13.30;92.70;;;;;;5070402;28;20192;-69
2022/02/19 11:27:56;;;;;;;2.05;0.20;;;13.30;92.50;;;;;;5070639;28;20173;-69
2022/02/19 11:30:24;;;;;;;0.17;0.17;;;13.10;93.70;;;;;;5069125;28;20175;-69
2022/02/19 11:32:54;;;;;;;0.30;0.30;;;12.90;92.20;;;;;;5070393;28;20164;-69
2022/02/19 11:35:38;;;;;;;1.27;0.52;;;12.70;92.30;;;;;;5070183;28;20195;-69
2022/02/19 11:38:28;;;;;;;0.35;0.17;;;12.80;92.60;;;;;;5070163;28;20184;-69
2022/02/19 11:41:03;;;;;;;1.45;0.20;;;12.90;93.40;;;;;;5070234;28;20161;-69
2022/02/19 11:43:37;;;;;;;4.50;0.40;;;12.80;93.00;;;;;;5070044;28;20605;-68
2022/02/19 11:46:09;;;;;;;0.30;0.20;;;13.00;93.30;;;;;;5070077;28;20215;-68
2022/02/19 11:48:36;;;;;;;0.65;0.30;;;13.10;91.80;;;;;;5070165;28;20655;-69
2022/02/19 11:51:10;;;;;;;0.60;0.15;;;13.20;91.60;;;;;;5068560;28;20175;-69
2022/02/19 11:53:36;;;;;;;0.10;0.10;;;13.30;91.90;;;;;;5069907;28;20161;-69
2022/02/19 11:56:02;;;;;;;0.52;0.20;;;13.30;92.10;;;;;;5069960;28;20200;-69
2022/02/19 11:58:28;;;;;;;1.58;0.30;;;13.10;91.70;;;;;;5068636;28;20266;-69
2022/02/19 12:01:12;;;;;;;3.63;0.60;;;13.10;92.80;;;;;;5070056;28;20630;-69
2022/02/19 12:03:38;;;;;;;2.75;1.50;;;13.60;95.10;;;;;;5069634;28;20667;-68
2022/02/19 12:06:18;;;;;;;1.35;0.70;;;13.60;98.90;;;;;;5069598;28;20196;-69
2022/02/19 12:08:47;;;;;;;1.90;0.60;;;13.70;92.40;;;;;;5069827;28;20219;-68
2022/02/19 12:11:25;;;;;;;1.35;0.73;;;14.10;94.80;;;;;;5069675;28;20625;-70
2022/02/19 12:13:56;;;;;;;3.38;1.10;;;14.40;96.30;;;;;;5069766;28;20157;-70
2022/02/19 12:16:28;;;;;;;3.00;1.10;;;14.10;98.90;;;;;;5069078;28;20251;-70
2022/02/19 12:18:56;;;;;;;3.78;1.42;;;13.90;98.40;;;;;;5069607;28;20235;-70
2022/02/19 12:21:35;;;;;;;2.45;1.25;;;13.60;99.90;;;;;;5069496;28;20157;-70
2022/02/19 12:24:16;;;;;;;6.13;1.58;;;13.60;99.90;;;;;;5070837;28;20176;-70
2022/02/19 12:27:05;;;;;;;2.22;1.08;;;13.40;99.90;;;;;;5069313;28;20210;-69
2022/02/19 12:29:39;;;;;;;1.60;0.70;;;13.70;99.00;;;;;;5077621;28;20198;-69
2022/02/19 12:32:23;;;;;;;0.45;0.40;;;13.70;98.30;;;;;;5089525;28;20155;-70
2022/02/19 12:34:53;;;;;;;2.08;0.60;;;13.90;96.50;;;;;;5088137;28;20171;-70
2022/02/19 12:37:21;;;;;;;0.55;0.40;;;13.90;95.00;;;;;;5089260;28;20184;-70
2022/02/19 12:39:52;;;;;;;2.05;0.55;;;14.10;95.20;;;;;;5089272;28;20156;-69
2022/02/19 12:42:28;;;;;;;1.55;0.50;;;14.00;95.20;;;;;;5089388;28;20186;-70
2022/02/19 12:45:05;;;;;;;1.52;0.55;;;13.80;95.00;;;;;;5089189;28;20183;-69
2022/02/19 12:47:32;;;;;;;1.42;0.40;;;13.40;94.80;;;;;;5087780;28;20231;-69
2022/02/19 12:49:58;;;;;;;0.40;0.38;;;13.20;94.70;;;;;;5089226;28;20163;-70
2022/02/19 12:52:24;;;;;;;1.08;0.65;;;13.10;95.30;;;;;;5089444;28;20230;-70
2022/02/19 12:54:50;;;;;;;1.58;1.02;;;13.10;94.90;;;;;;5089082;28;20522;-70
2022/02/19 12:57:20;;;;;;;1.85;1.10;;;13.00;98.00;;;;;;5089034;28;20161;-70
2022/02/19 12:59:47;;;;;;;6.90;1.50;;;12.70;99.90;;;;;;5088952;28;20201;-69
2022/02/19 13:02:21;;;;;;;5.28;1.63;;;12.50;99.90;;;;;;5088812;28;20188;-68
2022/02/19 13:04:49;;;;;;;2.97;1.67;;;12.10;99.90;;;;;;5089053;28;20172;-69